Airfield :
LOGIN :

Register | Disclaimer

   EN    FR    IT 

 










Legend :    VFR   Marginal VFR   IFR   Intensive IFR   Very Intensive IFR
Visi :
Ceiling :
>= 8 km
>= 3000ft
5 to 8 km
1000 to 3000 ft
1500m to 5 km
500 to 1000 ft
800 to 1500m
200 to 500 ft
< 800m
< 200 ft
Symbols :   Thunderstorms  Fog  Heavy snow  Heavy precipitations  Wind > 20 kt
SIGMETs :     Misc.  Thunderstorms  Icing  Turbulence  Mountain Waves  Volcanic Ashes






- Airport Elevation : 412 ft
- IATA code : ORE


LFOJ - Orleans

CURRENT METAR :
  • 160600Z AUTO 20009KT 9999 BKN006 BKN013 BKN023 11/09 Q1005

EXPIRED METARs :
  • 160530Z AUTO 19008KT 9999 BKN005 OVC011 10/09 Q1005
  • 160500Z AUTO 20007KT 9999 BKN010 OVC082 09/08 Q1005
  • 160430Z AUTO 21009KT 9999 BKN006 OVC084 09/08 Q1005
  • 160400Z AUTO 21006KT 9999 OVC006 09/08 Q1005
  • 160330Z AUTO 22005KT 9999 OVC007 09/08 Q1005

Expired Forecast.



MET'MAP, your aeronautical weather chart ! - Copyright ORBIFLY December 2007 - Disclaimer

ORBIFLY MET'MAP TEAM :

Programming & Development : Alexandra Zaïnal
Concept & original design : Baudouin d'Aumeries
Assistance for programming : Marc-Olivier Méhu
Technical & hardware support : Manuel Goepfert

Contact : metmap@orbifly.com




SOURCES & CREDITS :

   NOAA